sensor_id;sensor_type;location;lat;lon;timestamp;temperature;humidity
34061;DHT22;20336;-33.424;-70.638;2022-09-09T00:04:03;6.50;99.90
34061;DHT22;20336;-33.424;-70.638;2022-09-09T00:06:56;6.50;99.90
34061;DHT22;20336;-33.424;-70.638;2022-09-09T00:09:22;6.50;99.90
34061;DHT22;20336;-33.424;-70.638;2022-09-09T00:12:11;6.50;99.90
34061;DHT22;20336;-33.424;-70.638;2022-09-09T00:14:56;6.60;99.90
34061;DHT22;20336;-33.424;-70.638;2022-09-09T00:20:36;6.40;99.90
34061;DHT22;20336;-33.424;-70.638;2022-09-09T00:23:18;6.40;99.90
34061;DHT22;20336;-33.424;-70.638;2022-09-09T00:28:26;6.40;99.90
34061;DHT22;20336;-33.424;-70.638;2022-09-09T00:30:56;6.50;99.90
34061;DHT22;20336;-33.424;-70.638;2022-09-09T00:33:25;6.50;99.90
34061;DHT22;20336;-33.424;-70.638;2022-09-09T00:35:57;6.40;99.90
34061;DHT22;20336;-33.424;-70.638;2022-09-09T00:38:48;6.40;99.90
34061;DHT22;20336;-33.424;-70.638;2022-09-09T00:44:30;6.40;99.90
34061;DHT22;20336;-33.424;-70.638;2022-09-09T00:50:03;6.40;99.90
34061;DHT22;20336;-33.424;-70.638;2022-09-09T00:52:42;6.50;99.90
34061;DHT22;20336;-33.424;-70.638;2022-09-09T00:55:19;6.40;99.90
34061;DHT22;20336;-33.424;-70.638;2022-09-09T00:57:52;6.40;99.90
34061;DHT22;20336;-33.424;-70.638;2022-09-09T01:00:22;6.50;99.90
34061;DHT22;20336;-33.424;-70.638;2022-09-09T01:03:02;6.50;99.90
34061;DHT22;20336;-33.424;-70.638;2022-09-09T01:05:34;6.60;99.90
34061;DHT22;20336;-33.424;-70.638;2022-09-09T01:08:08;6.40;99.90
34061;DHT22;20336;-33.424;-70.638;2022-09-09T01:10:50;6.30;99.90
34061;DHT22;20336;-33.424;-70.638;2022-09-09T01:13:31;6.30;99.90
34061;DHT22;20336;-33.424;-70.638;2022-09-09T01:16:08;6.30;99.90
34061;DHT22;20336;-33.424;-70.638;2022-09-09T01:18:46;6.30;99.90
34061;DHT22;20336;-33.424;-70.638;2022-09-09T01:26:54;6.20;99.90
34061;DHT22;20336;-33.424;-70.638;2022-09-09T01:29:24;6.10;99.90
34061;DHT22;20336;-33.424;-70.638;2022-09-09T01:34:22;6.20;99.90
34061;DHT22;20336;-33.424;-70.638;2022-09-09T01:39:21;6.10;99.90
34061;DHT22;20336;-33.424;-70.638;2022-09-09T01:41:48;6.10;99.90
34061;DHT22;20336;-33.424;-70.638;2022-09-09T01:44:15;6.00;99.90
34061;DHT22;20336;-33.424;-70.638;2022-09-09T01:46:41;6.00;99.90
34061;DHT22;20336;-33.424;-70.638;2022-09-09T01:49:09;6.00;99.90
34061;DHT22;20336;-33.424;-70.638;2022-09-09T01:51:37;6.10;99.90
34061;DHT22;20336;-33.424;-70.638;2022-09-09T01:54:04;6.10;99.90
34061;DHT22;20336;-33.424;-70.638;2022-09-09T02:00:05;6.00;99.90
34061;DHT22;20336;-33.424;-70.638;2022-09-09T02:05:28;5.80;99.90
34061;DHT22;20336;-33.424;-70.638;2022-09-09T02:08:07;5.70;99.90
34061;DHT22;20336;-33.424;-70.638;2022-09-09T02:11:03;5.70;99.90
34061;DHT22;20336;-33.424;-70.638;2022-09-09T02:13:29;5.70;99.90
34061;DHT22;20336;-33.424;-70.638;2022-09-09T02:16:03;5.80;99.90
34061;DHT22;20336;-33.424;-70.638;2022-09-09T02:18:38;5.70;99.90
34061;DHT22;20336;-33.424;-70.638;2022-09-09T02:21:07;5.70;99.90
34061;DHT22;20336;-33.424;-70.638;2022-09-09T02:23:35;5.60;99.90
34061;DHT22;20336;-33.424;-70.638;2022-09-09T02:26:03;5.60;99.90
34061;DHT22;20336;-33.424;-70.638;2022-09-09T02:28:32;5.50;99.90
34061;DHT22;20336;-33.424;-70.638;2022-09-09T02:31:01;5.50;99.90
34061;DHT22;20336;-33.424;-70.638;2022-09-09T02:33:33;5.50;99.90
34061;DHT22;20336;-33.424;-70.638;2022-09-09T02:36:02;5.40;99.90
34061;DHT22;20336;-33.424;-70.638;2022-09-09T02:38:32;5.40;99.90
34061;DHT22;20336;-33.424;-70.638;2022-09-09T02:41:01;5.30;99.90
34061;DHT22;20336;-33.424;-70.638;2022-09-09T02:43:32;5.30;99.90
34061;DHT22;20336;-33.424;-70.638;2022-09-09T02:48:59;5.20;99.90
34061;DHT22;20336;-33.424;-70.638;2022-09-09T02:51:40;5.20;99.90
34061;DHT22;20336;-33.424;-70.638;2022-09-09T02:56:52;5.10;99.90
34061;DHT22;20336;-33.424;-70.638;2022-09-09T02:59:25;5.00;99.90
34061;DHT22;20336;-33.424;-70.638;2022-09-09T03:01:52;4.90;99.90
34061;DHT22;20336;-33.424;-70.638;2022-09-09T03:04:19;4.90;99.90
34061;DHT22;20336;-33.424;-70.638;2022-09-09T03:06:46;5.00;99.90
34061;DHT22;20336;-33.424;-70.638;2022-09-09T03:09:13;4.90;99.90
34061;DHT22;20336;-33.424;-70.638;2022-09-09T03:11:40;4.90;99.90
34061;DHT22;20336;-33.424;-70.638;2022-09-09T03:14:07;4.90;99.90
34061;DHT22;20336;-33.424;-70.638;2022-09-09T03:16:37;5.00;99.90
34061;DHT22;20336;-33.424;-70.638;2022-09-09T03:19:08;4.90;99.90
34061;DHT22;20336;-33.424;-70.638;2022-09-09T03:21:35;4.90;99.90
34061;DHT22;20336;-33.424;-70.638;2022-09-09T03:24:02;5.00;99.90
34061;DHT22;20336;-33.424;-70.638;2022-09-09T03:26:30;4.90;99.90
34061;DHT22;20336;-33.424;-70.638;2022-09-09T03:28:57;4.80;99.90
34061;DHT22;20336;-33.424;-70.638;2022-09-09T03:31:26;4.70;99.90
34061;DHT22;20336;-33.424;-70.638;2022-09-09T03:33:57;4.70;99.90
34061;DHT22;20336;-33.424;-70.638;2022-09-09T03:36:28;4.70;99.90
34061;DHT22;20336;-33.424;-70.638;2022-09-09T03:38:55;4.70;99.90
34061;DHT22;20336;-33.424;-70.638;2022-09-09T03:41:23;4.70;99.90
34061;DHT22;20336;-33.424;-70.638;2022-09-09T03:43:51;4.70;99.90
34061;DHT22;20336;-33.424;-70.638;2022-09-09T03:46:22;4.80;99.90
34061;DHT22;20336;-33.424;-70.638;2022-09-09T03:48:50;4.90;99.90
34061;DHT22;20336;-33.424;-70.638;2022-09-09T03:51:18;4.90;99.90
34061;DHT22;20336;-33.424;-70.638;2022-09-09T03:53:45;4.90;99.90
34061;DHT22;20336;-33.424;-70.638;2022-09-09T03:56:12;4.90;99.90
34061;DHT22;20336;-33.424;-70.638;2022-09-09T03:58:39;4.80;99.90
34061;DHT22;20336;-33.424;-70.638;2022-09-09T04:01:10;4.80;99.90
34061;DHT22;20336;-33.424;-70.638;2022-09-09T04:03:39;4.80;99.90
34061;DHT22;20336;-33.424;-70.638;2022-09-09T04:06:07;4.80;99.90
34061;DHT22;20336;-33.424;-70.638;2022-09-09T04:08:35;4.80;99.90
34061;DHT22;20336;-33.424;-70.638;2022-09-09T04:11:03;4.90;99.90
34061;DHT22;20336;-33.424;-70.638;2022-09-09T04:13:33;5.00;99.90
34061;DHT22;20336;-33.424;-70.638;2022-09-09T04:16:01;4.90;99.90
34061;DHT22;20336;-33.424;-70.638;2022-09-09T04:18:30;4.90;99.90
34061;DHT22;20336;-33.424;-70.638;2022-09-09T04:20:57;5.00;99.90
34061;DHT22;20336;-33.424;-70.638;2022-09-09T04:23:27;5.00;99.90
34061;DHT22;20336;-33.424;-70.638;2022-09-09T04:26:00;4.90;99.90
34061;DHT22;20336;-33.424;-70.638;2022-09-09T04:28:29;4.90;99.90
34061;DHT22;20336;-33.424;-70.638;2022-09-09T04:30:56;4.80;99.90
34061;DHT22;20336;-33.424;-70.638;2022-09-09T04:33:24;4.70;99.90
34061;DHT22;20336;-33.424;-70.638;2022-09-09T04:35:54;4.70;99.90
34061;DHT22;20336;-33.424;-70.638;2022-09-09T04:38:21;4.60;99.90
34061;DHT22;20336;-33.424;-70.638;2022-09-09T04:40:50;4.60;99.90
34061;DHT22;20336;-33.424;-70.638;2022-09-09T04:43:19;4.70;99.90
34061;DHT22;20336;-33.424;-70.638;2022-09-09T04:45:50;4.70;99.90
34061;DHT22;20336;-33.424;-70.638;2022-09-09T04:48:18;4.60;99.90
34061;DHT22;20336;-33.424;-70.638;2022-09-09T04:51:07;4.50;99.90
34061;DHT22;20336;-33.424;-70.638;2022-09-09T04:53:35;4.40;99.90
34061;DHT22;20336;-33.424;-70.638;2022-09-09T04:56:07;4.40;99.90
34061;DHT22;20336;-33.424;-70.638;2022-09-09T04:58:36;4.40;99.90
34061;DHT22;20336;-33.424;-70.638;2022-09-09T05:01:05;4.40;99.90
34061;DHT22;20336;-33.424;-70.638;2022-09-09T05:03:33;4.50;99.90
34061;DHT22;20336;-33.424;-70.638;2022-09-09T05:06:19;4.60;99.90
34061;DHT22;20336;-33.424;-70.638;2022-09-09T05:08:46;4.60;99.90
34061;DHT22;20336;-33.424;-70.638;2022-09-09T05:11:17;4.70;99.90
34061;DHT22;20336;-33.424;-70.638;2022-09-09T05:13:45;4.70;99.90
34061;DHT22;20336;-33.424;-70.638;2022-09-09T05:16:13;4.90;99.90
34061;DHT22;20336;-33.424;-70.638;2022-09-09T05:18:40;5.00;99.90
34061;DHT22;20336;-33.424;-70.638;2022-09-09T05:21:12;5.10;99.90
34061;DHT22;20336;-33.424;-70.638;2022-09-09T05:23:39;5.10;99.90
34061;DHT22;20336;-33.424;-70.638;2022-09-09T05:26:09;5.20;99.90
34061;DHT22;20336;-33.424;-70.638;2022-09-09T05:28:36;5.30;99.90
34061;DHT22;20336;-33.424;-70.638;2022-09-09T05:31:06;5.30;99.90
34061;DHT22;20336;-33.424;-70.638;2022-09-09T05:33:43;5.40;99.90
34061;DHT22;20336;-33.424;-70.638;2022-09-09T05:36:17;5.30;99.90
34061;DHT22;20336;-33.424;-70.638;2022-09-09T05:38:44;5.30;99.90
34061;DHT22;20336;-33.424;-70.638;2022-09-09T05:41:12;5.20;99.90
34061;DHT22;20336;-33.424;-70.638;2022-09-09T05:43:42;5.30;99.90
34061;DHT22;20336;-33.424;-70.638;2022-09-09T05:46:12;5.40;99.90
34061;DHT22;20336;-33.424;-70.638;2022-09-09T05:48:41;5.30;99.90
34061;DHT22;20336;-33.424;-70.638;2022-09-09T05:51:10;5.30;99.90
34061;DHT22;20336;-33.424;-70.638;2022-09-09T05:53:42;5.40;99.90
34061;DHT22;20336;-33.424;-70.638;2022-09-09T05:56:14;5.30;99.90
34061;DHT22;20336;-33.424;-70.638;2022-09-09T05:58:41;5.10;99.90
34061;DHT22;20336;-33.424;-70.638;2022-09-09T06:01:15;5.00;99.90
34061;DHT22;20336;-33.424;-70.638;2022-09-09T06:03:44;4.90;99.90
34061;DHT22;20336;-33.424;-70.638;2022-09-09T06:06:13;4.80;99.90
34061;DHT22;20336;-33.424;-70.638;2022-09-09T06:08:42;4.80;99.90
34061;DHT22;20336;-33.424;-70.638;2022-09-09T06:11:24;4.80;99.90
34061;DHT22;20336;-33.424;-70.638;2022-09-09T06:13:51;4.80;99.90
34061;DHT22;20336;-33.424;-70.638;2022-09-09T06:16:21;4.80;99.90
34061;DHT22;20336;-33.424;-70.638;2022-09-09T06:18:52;4.70;99.90
34061;DHT22;20336;-33.424;-70.638;2022-09-09T06:21:24;4.60;99.90
34061;DHT22;20336;-33.424;-70.638;2022-09-09T06:23:51;4.60;99.90
34061;DHT22;20336;-33.424;-70.638;2022-09-09T06:26:21;4.60;99.90
34061;DHT22;20336;-33.424;-70.638;2022-09-09T06:28:49;4.60;99.90
34061;DHT22;20336;-33.424;-70.638;2022-09-09T06:31:23;4.60;99.90
34061;DHT22;20336;-33.424;-70.638;2022-09-09T06:33:52;4.80;99.90
34061;DHT22;20336;-33.424;-70.638;2022-09-09T06:36:24;4.90;99.90
34061;DHT22;20336;-33.424;-70.638;2022-09-09T06:38:51;4.90;99.90
34061;DHT22;20336;-33.424;-70.638;2022-09-09T06:41:20;4.90;99.90
34061;DHT22;20336;-33.424;-70.638;2022-09-09T06:43:47;4.90;99.90
34061;DHT22;20336;-33.424;-70.638;2022-09-09T06:46:19;4.90;99.90
34061;DHT22;20336;-33.424;-70.638;2022-09-09T06:48:48;4.90;99.90
34061;DHT22;20336;-33.424;-70.638;2022-09-09T06:51:18;4.80;99.90
34061;DHT22;20336;-33.424;-70.638;2022-09-09T06:53:49;4.80;99.90
34061;DHT22;20336;-33.424;-70.638;2022-09-09T06:56:45;4.80;99.90
34061;DHT22;20336;-33.424;-70.638;2022-09-09T06:59:12;4.90;99.90
34061;DHT22;20336;-33.424;-70.638;2022-09-09T07:01:40;4.80;99.90
34061;DHT22;20336;-33.424;-70.638;2022-09-09T07:04:07;4.80;99.90
34061;DHT22;20336;-33.424;-70.638;2022-09-09T07:06:37;4.70;99.90
34061;DHT22;20336;-33.424;-70.638;2022-09-09T07:09:06;4.70;99.90
34061;DHT22;20336;-33.424;-70.638;2022-09-09T07:11:38;4.70;99.90
34061;DHT22;20336;-33.424;-70.638;2022-09-09T07:14:05;4.70;99.90
34061;DHT22;20336;-33.424;-70.638;2022-09-09T07:16:33;4.60;99.90
34061;DHT22;20336;-33.424;-70.638;2022-09-09T07:19:03;4.50;99.90
34061;DHT22;20336;-33.424;-70.638;2022-09-09T07:21:32;4.30;99.90
